createdAt,value
2023-05-01T00:00:24.374Z,2.67
2023-05-01T00:02:52.228Z,2.33
2023-05-01T00:05:19.636Z,3.43
2023-05-01T00:10:28.850Z,2.63
2023-05-01T00:12:56.033Z,3.10
2023-05-01T00:15:23.685Z,3.67
2023-05-01T00:17:51.537Z,3.57
2023-05-01T00:20:19.097Z,4.67
2023-05-01T00:22:47.151Z,1.47
2023-05-01T00:25:14.523Z,3.40
2023-05-01T00:27:42.817Z,3.63
2023-05-01T00:35:16.228Z,3.73
2023-05-01T00:37:43.804Z,3.37
2023-05-01T00:40:11.574Z,3.67
2023-05-01T00:42:39.973Z,3.87
2023-05-01T00:45:08.364Z,2.10
2023-05-01T00:47:36.385Z,6.20
2023-05-01T00:50:04.598Z,4.17
2023-05-01T00:55:14.328Z,3.30
2023-05-01T00:57:41.635Z,1.83
2023-05-01T01:00:12.172Z,3.90
2023-05-01T01:02:39.429Z,3.47
2023-05-01T01:05:06.789Z,3.03
2023-05-01T01:07:42.155Z,3.57
2023-05-01T01:10:17.626Z,3.30
2023-05-01T01:20:50.011Z,4.13
2023-05-01T01:23:53.203Z,4.70
2023-05-01T01:26:52.171Z,4.27
2023-05-01T01:29:56.399Z,4.40
2023-05-01T01:32:56.433Z,6.70
2023-05-01T01:35:27.180Z,5.70
2023-05-01T01:43:04.361Z,6.00
2023-05-01T01:45:37.624Z,3.43
2023-05-01T01:48:07.627Z,5.17
2023-05-01T01:50:38.867Z,2.23
2023-05-01T01:53:08.750Z,2.97
2023-05-01T01:55:38.340Z,2.77
2023-05-01T01:58:09.895Z,2.87
2023-05-01T02:03:40.751Z,3.50
2023-05-01T02:06:10.968Z,4.37
2023-05-01T02:08:38.295Z,5.90
2023-05-01T02:11:06.382Z,4.63
2023-05-01T02:13:33.725Z,2.73
2023-05-01T02:16:03.414Z,4.10
2023-05-01T02:18:31.762Z,3.67
2023-05-01T02:23:45.150Z,2.80
2023-05-01T02:26:16.634Z,3.87
2023-05-01T02:28:43.888Z,3.40
2023-05-01T02:31:11.676Z,6.47
2023-05-01T02:33:39.499Z,3.40
2023-05-01T02:36:07.754Z,3.93
2023-05-01T02:38:35.174Z,6.83
2023-05-01T02:43:47.261Z,5.43
2023-05-01T02:46:16.644Z,3.07
2023-05-01T02:48:44.399Z,2.70
2023-05-01T02:51:13.183Z,4.33
2023-05-01T02:53:40.669Z,3.30
2023-05-01T02:56:08.665Z,6.13
2023-05-01T02:58:36.663Z,6.43
2023-05-01T03:08:48.347Z,5.57
2023-05-01T03:11:15.874Z,4.37
2023-05-01T03:13:44.182Z,4.30
2023-05-01T03:16:11.516Z,4.30
2023-05-01T03:18:39.229Z,7.70
2023-05-01T03:21:06.579Z,4.67
2023-05-01T03:23:37.774Z,3.53
2023-05-01T03:29:37.571Z,3.53
2023-05-01T03:32:05.350Z,3.70
2023-05-01T03:34:32.661Z,3.37
2023-05-01T03:37:00.118Z,3.83
2023-05-01T03:39:27.014Z,4.93
2023-05-01T03:41:54.511Z,3.40
2023-05-01T03:44:22.519Z,4.87
2023-05-01T03:51:55.987Z,11.17
2023-05-01T03:54:23.410Z,3.67
2023-05-01T03:56:51.303Z,3.13
2023-05-01T03:59:18.433Z,4.63
2023-05-01T04:01:45.945Z,4.67
2023-05-01T04:04:13.366Z,3.40
2023-05-01T04:06:40.603Z,3.43
2023-05-01T04:11:53.234Z,5.10
2023-05-01T04:14:20.638Z,3.80
2023-05-01T04:16:48.098Z,6.33
2023-05-01T04:19:15.526Z,4.03
2023-05-01T04:21:42.943Z,3.53
2023-05-01T04:24:13.261Z,5.27
2023-05-01T04:26:42.161Z,5.53
2023-05-01T04:32:04.758Z,7.67
2023-05-01T04:34:32.447Z,5.03
2023-05-01T04:37:01.387Z,3.60
2023-05-01T04:39:28.544Z,5.20
2023-05-01T04:41:55.739Z,5.57
2023-05-01T04:44:22.690Z,5.43
2023-05-01T04:46:50.535Z,4.47
2023-05-01T04:57:00.368Z,9.17
2023-05-01T04:59:27.822Z,5.40
2023-05-01T05:01:55.254Z,7.97
2023-05-01T05:04:22.902Z,6.07
2023-05-01T05:06:50.478Z,13.17
2023-05-01T05:09:20.045Z,7.13
2023-05-01T05:11:47.562Z,4.77
2023-05-01T05:20:08.136Z,5.03
2023-05-01T05:22:37.226Z,7.97
2023-05-01T05:25:06.088Z,7.10
2023-05-01T05:27:37.612Z,7.23
2023-05-01T05:30:05.624Z,11.67
2023-05-01T05:32:33.176Z,7.80
2023-05-01T05:35:00.929Z,3.07
2023-05-01T05:40:29.907Z,6.57
2023-05-01T05:42:57.308Z,6.60
2023-05-01T05:45:24.406Z,7.07
2023-05-01T05:47:51.738Z,5.63
2023-05-01T05:50:19.184Z,12.27
2023-05-01T05:52:46.380Z,7.63
2023-05-01T05:55:17.037Z,5.83
2023-05-01T05:57:46.336Z,7.27
2023-05-01T06:05:12.275Z,7.07
2023-05-01T06:07:39.831Z,9.87
2023-05-01T06:10:08.542Z,8.40
2023-05-01T06:12:37.543Z,6.23
2023-05-01T06:15:07.726Z,8.70
2023-05-01T06:17:36.960Z,7.83
2023-05-01T06:20:05.707Z,8.73
2023-05-01T06:25:56.512Z,8.67
2023-05-01T06:28:23.388Z,7.10
2023-05-01T06:30:50.422Z,7.17
2023-05-01T06:33:17.452Z,6.47
2023-05-01T06:35:44.260Z,7.57
2023-05-01T06:38:11.211Z,8.40
2023-05-01T06:40:38.576Z,7.00
2023-05-01T06:45:55.995Z,6.50
2023-05-01T06:48:23.376Z,10.10
2023-05-01T06:50:50.290Z,16.07
2023-05-01T06:53:18.588Z,6.80
2023-05-01T06:55:45.866Z,6.30
2023-05-01T06:58:23.615Z,8.77
2023-05-01T07:00:52.486Z,10.83
2023-05-01T07:08:24.459Z,6.03
2023-05-01T07:10:53.222Z,6.93
2023-05-01T07:13:20.679Z,8.47
2023-05-01T07:15:48.214Z,7.27
2023-05-01T07:18:16.722Z,10.40
2023-05-01T07:20:44.212Z,6.67
2023-05-01T07:23:13.060Z,6.70
2023-05-01T07:28:23.217Z,7.63
2023-05-01T07:30:50.867Z,5.07
2023-05-01T07:33:18.047Z,8.97
2023-05-01T07:35:45.271Z,5.80
2023-05-01T07:38:13.608Z,5.27
2023-05-01T07:40:40.522Z,6.23
2023-05-01T07:43:10.683Z,4.90
2023-05-01T07:48:35.066Z,7.77
2023-05-01T07:51:03.609Z,12.07
2023-05-01T07:53:31.766Z,5.97
2023-05-01T07:56:06.549Z,9.80
2023-05-01T07:58:33.439Z,8.20
2023-05-01T08:01:00.947Z,7.47
2023-05-01T08:03:29.365Z,9.43
2023-05-01T08:08:37.756Z,8.40
2023-05-01T08:11:05.071Z,5.50
2023-05-01T08:13:32.301Z,4.90
2023-05-01T08:16:02.926Z,7.23
2023-05-01T08:18:30.374Z,5.93
2023-05-01T08:20:57.633Z,6.10
2023-05-01T08:23:24.951Z,6.73
2023-05-01T08:31:00.110Z,6.10
2023-05-01T08:33:27.896Z,6.93
2023-05-01T08:35:55.387Z,23.13
2023-05-01T08:38:22.578Z,10.33
2023-05-01T08:40:56.302Z,7.00
2023-05-01T08:43:24.464Z,5.37
2023-05-01T08:45:53.823Z,3.97
2023-05-01T08:51:22.401Z,6.70
2023-05-01T08:53:51.640Z,7.73
2023-05-01T08:56:19.638Z,5.57
2023-05-01T08:58:50.515Z,6.40
2023-05-01T09:01:19.825Z,4.47
2023-05-01T09:03:49.901Z,8.10
2023-05-01T09:06:21.421Z,8.57
2023-05-01T09:16:45.676Z,5.27
2023-05-01T09:19:13.026Z,4.80
2023-05-01T09:21:41.085Z,5.47
2023-05-01T09:24:08.467Z,8.57
2023-05-01T09:26:40.248Z,6.50
2023-05-01T09:29:09.625Z,3.67
2023-05-01T09:31:37.215Z,4.17
2023-05-01T09:37:02.921Z,4.70
2023-05-01T09:39:30.068Z,4.30
2023-05-01T09:41:57.328Z,4.67
2023-05-01T09:44:25.131Z,6.10
2023-05-01T09:46:52.499Z,5.60
2023-05-01T09:49:20.130Z,7.27
2023-05-01T09:51:48.128Z,5.83
2023-05-01T09:57:04.786Z,6.57
2023-05-01T09:59:34.297Z,4.87
2023-05-01T10:02:01.945Z,4.93
2023-05-01T10:04:34.118Z,5.17
2023-05-01T10:07:13.080Z,9.20
2023-05-01T10:09:42.330Z,4.17
2023-05-01T10:12:11.173Z,4.60
2023-05-01T10:19:42.690Z,8.13
2023-05-01T10:22:10.064Z,4.37
2023-05-01T10:24:37.377Z,7.07
2023-05-01T10:27:08.318Z,6.67
2023-05-01T10:29:37.389Z,4.90
2023-05-01T10:32:06.864Z,4.43
2023-05-01T10:34:37.777Z,4.07
2023-05-01T10:43:28.087Z,4.20
2023-05-01T10:46:15.843Z,4.67
2023-05-01T10:48:58.434Z,4.10
2023-05-01T10:51:28.349Z,6.50
2023-05-01T10:54:23.988Z,3.30
2023-05-01T10:56:51.457Z,5.43
2023-05-01T10:59:20.088Z,3.37
2023-05-01T11:07:18.561Z,4.83
2023-05-01T11:09:48.421Z,2.70
2023-05-01T11:12:16.720Z,3.07
2023-05-01T11:15:05.176Z,3.90
2023-05-01T11:17:46.690Z,3.60
2023-05-01T11:20:34.798Z,4.73
2023-05-01T11:23:02.748Z,4.03
2023-05-01T11:30:39.389Z,3.80
2023-05-01T11:33:10.136Z,2.97
2023-05-01T11:35:39.137Z,3.23
2023-05-01T11:38:08.075Z,7.77
2023-05-01T11:40:35.971Z,4.67
2023-05-01T11:43:04.661Z,5.83
2023-05-01T11:45:33.128Z,5.67
2023-05-01T11:50:44.703Z,6.57
2023-05-01T11:53:16.156Z,4.47
2023-05-01T11:55:43.981Z,4.00
2023-05-01T11:58:11.663Z,3.50
2023-05-01T12:00:43.430Z,2.97
2023-05-01T12:03:12.931Z,7.60
2023-05-01T12:05:42.517Z,5.97
2023-05-01T12:11:12.661Z,3.17
2023-05-01T12:13:41.301Z,5.07
2023-05-01T12:16:10.596Z,5.07
2023-05-01T12:18:39.133Z,6.90
2023-05-01T12:21:15.291Z,4.33
2023-05-01T12:23:42.963Z,3.90
2023-05-01T12:26:18.735Z,7.07
2023-05-01T12:36:39.590Z,7.07
2023-05-01T12:39:11.374Z,3.50
2023-05-01T12:41:40.895Z,6.50
2023-05-01T12:44:22.272Z,4.80
2023-05-01T12:47:03.142Z,5.70
2023-05-01T12:49:32.499Z,4.40
2023-05-01T12:52:04.353Z,5.63
2023-05-01T12:59:41.989Z,4.13
2023-05-01T13:02:12.644Z,4.87
2023-05-01T13:04:48.778Z,7.80
2023-05-01T13:07:21.653Z,4.67
2023-05-01T13:09:53.112Z,6.57
2023-05-01T13:12:20.954Z,3.90
2023-05-01T13:14:50.388Z,4.93
2023-05-01T13:22:32.399Z,7.60
2023-05-01T13:25:02.841Z,6.40
2023-05-01T13:27:31.903Z,8.57
2023-05-01T13:30:01.830Z,6.63
2023-05-01T13:32:29.311Z,6.27
2023-05-01T13:35:00.353Z,5.67
2023-05-01T13:37:29.280Z,4.70
2023-05-01T13:45:05.858Z,7.67
2023-05-01T13:47:33.504Z,10.50
2023-05-01T13:50:01.307Z,6.47
2023-05-01T13:52:29.090Z,4.90
2023-05-01T13:54:57.052Z,5.20
2023-05-01T13:57:25.427Z,4.47
2023-05-01T13:59:52.906Z,6.00
2023-05-01T14:09:44.745Z,8.23
2023-05-01T14:12:14.016Z,5.87
2023-05-01T14:14:48.429Z,4.73
2023-05-01T14:17:15.765Z,4.20
2023-05-01T14:19:44.147Z,7.73
2023-05-01T14:22:12.550Z,6.00
2023-05-01T14:24:41.864Z,5.97
2023-05-01T14:30:07.657Z,7.13
2023-05-01T14:32:40.524Z,4.27
2023-05-01T14:35:10.964Z,3.97
2023-05-01T14:37:39.852Z,5.40
2023-05-01T14:40:14.815Z,7.83
2023-05-01T14:42:44.101Z,6.17
2023-05-01T14:45:14.566Z,9.97
2023-05-01T14:50:25.483Z,6.67
2023-05-01T14:52:57.387Z,5.10
2023-05-01T14:55:27.867Z,5.40
2023-05-01T14:57:55.238Z,4.23
2023-05-01T15:00:23.259Z,4.37
2023-05-01T15:02:52.172Z,7.17
2023-05-01T15:05:20.785Z,6.70
2023-05-01T15:11:07.147Z,4.47
2023-05-01T15:13:34.258Z,5.80
2023-05-01T15:16:01.614Z,6.27
2023-05-01T15:18:28.681Z,5.77
2023-05-01T15:20:55.994Z,4.77
2023-05-01T15:23:26.858Z,6.30
2023-05-01T15:25:54.383Z,5.00
2023-05-01T15:31:19.530Z,6.07
2023-05-01T15:33:47.403Z,8.47
2023-05-01T15:36:15.244Z,4.27
2023-05-01T15:38:42.484Z,7.40
2023-05-01T15:41:09.796Z,9.50
2023-05-01T15:43:37.973Z,5.27
2023-05-01T15:46:05.687Z,4.83
2023-05-01T15:55:30.691Z,5.97
2023-05-01T15:57:57.686Z,6.33
2023-05-01T16:00:24.959Z,5.70
2023-05-01T16:02:52.211Z,4.10
2023-05-01T16:05:21.702Z,4.97
2023-05-01T16:07:54.461Z,6.80
2023-05-01T16:10:21.905Z,4.70
2023-05-01T16:20:43.544Z,4.50
2023-05-01T16:23:11.754Z,3.63
2023-05-01T16:25:45.363Z,3.67
2023-05-01T16:28:12.647Z,5.70
2023-05-01T16:30:42.033Z,3.77
2023-05-01T16:33:17.557Z,4.90
2023-05-01T16:35:49.756Z,5.00
2023-05-01T16:41:08.421Z,4.10
2023-05-01T16:43:35.964Z,5.60
2023-05-01T16:46:04.066Z,3.97
2023-05-01T16:48:31.728Z,4.73
2023-05-01T16:50:58.659Z,6.83
2023-05-01T16:53:26.209Z,3.93
2023-05-01T16:55:53.133Z,3.57
2023-05-01T16:58:22.242Z,3.73
2023-05-01T17:03:30.660Z,5.33
2023-05-01T17:05:58.582Z,3.63
2023-05-01T17:08:26.432Z,5.53
2023-05-01T17:10:53.779Z,4.00
2023-05-01T17:13:21.249Z,3.60
2023-05-01T17:15:49.237Z,3.83
2023-05-01T17:18:21.336Z,3.80
2023-05-01T17:28:39.559Z,2.67
2023-05-01T17:31:08.070Z,4.50
2023-05-01T17:33:35.384Z,3.33
2023-05-01T17:36:03.435Z,4.83
2023-05-01T17:38:30.253Z,3.60
2023-05-01T17:40:57.824Z,6.17
2023-05-01T17:43:26.364Z,4.13
2023-05-01T17:53:44.287Z,4.57
2023-05-01T17:56:11.670Z,6.70
2023-05-01T17:58:38.888Z,3.53
2023-05-01T18:01:06.291Z,3.30
2023-05-01T18:03:35.611Z,3.23
2023-05-01T18:06:03.832Z,4.70
2023-05-01T18:08:32.441Z,5.90
2023-05-01T18:19:05.794Z,3.70
2023-05-01T18:21:36.279Z,3.97
2023-05-01T18:24:04.619Z,5.00
2023-05-01T18:26:32.399Z,3.20
2023-05-01T18:29:00.362Z,8.43
2023-05-01T18:31:28.544Z,3.50
2023-05-01T18:33:56.963Z,3.47
2023-05-01T18:44:14.854Z,3.37
2023-05-01T18:46:42.162Z,3.40
2023-05-01T18:49:09.154Z,5.27
2023-05-01T18:51:36.449Z,3.70
2023-05-01T18:54:05.213Z,4.90
2023-05-01T18:56:32.386Z,5.07
2023-05-01T18:58:59.918Z,3.73
2023-05-01T19:01:28.461Z,5.13
2023-05-01T19:09:00.793Z,4.77
2023-05-01T19:11:31.073Z,3.50
2023-05-01T19:13:58.790Z,5.93
2023-05-01T19:16:27.146Z,7.50
2023-05-01T19:18:55.406Z,3.33
2023-05-01T19:21:23.062Z,4.47
2023-05-01T19:23:50.412Z,3.23
2023-05-01T19:34:14.471Z,5.30
2023-05-01T19:36:43.048Z,2.90
2023-05-01T19:39:10.501Z,7.53
2023-05-01T19:41:39.869Z,4.73
2023-05-01T19:44:08.328Z,6.37
2023-05-01T19:46:36.412Z,2.93
2023-05-01T19:49:03.901Z,3.03
2023-05-01T19:54:26.582Z,6.97
2023-05-01T19:56:53.819Z,4.83
2023-05-01T19:59:21.865Z,2.70
2023-05-01T20:01:49.771Z,3.73
2023-05-01T20:04:17.184Z,2.73
2023-05-01T20:06:45.567Z,5.57
2023-05-01T20:09:13.221Z,3.00
2023-05-01T20:14:36.492Z,4.00
2023-05-01T20:17:06.947Z,2.90
2023-05-01T20:19:34.033Z,5.47
2023-05-01T20:22:01.270Z,3.67
2023-05-01T20:24:29.500Z,3.30
2023-05-01T20:26:59.339Z,4.27
2023-05-01T20:29:27.051Z,2.80
2023-05-01T20:36:58.895Z,3.60
2023-05-01T20:39:26.223Z,3.73
2023-05-01T20:41:54.128Z,3.73
2023-05-01T20:44:21.706Z,3.70
2023-05-01T20:46:49.252Z,3.77
2023-05-01T20:49:16.301Z,4.00
2023-05-01T20:51:43.371Z,7.50
2023-05-01T21:01:55.107Z,5.30
2023-05-01T21:04:23.971Z,9.40
2023-05-01T21:06:52.822Z,4.63
2023-05-01T21:09:19.986Z,6.77
2023-05-01T21:11:47.273Z,5.23
2023-05-01T21:14:15.630Z,4.47
2023-05-01T21:16:43.381Z,4.13
2023-05-01T21:27:10.163Z,4.30
2023-05-01T21:29:38.671Z,5.00
2023-05-01T21:32:06.313Z,7.30
2023-05-01T21:34:34.983Z,8.03
2023-05-01T21:37:02.602Z,7.30
2023-05-01T21:39:31.456Z,4.50
2023-05-01T21:41:58.963Z,5.43
2023-05-01T21:52:08.426Z,9.30
2023-05-01T21:54:36.707Z,7.37
2023-05-01T21:57:04.940Z,9.97
2023-05-01T21:59:35.593Z,7.23
2023-05-01T22:02:04.909Z,5.50
2023-05-01T22:04:32.049Z,7.17
2023-05-01T22:06:59.230Z,6.43
2023-05-01T22:12:34.227Z,9.00
2023-05-01T22:15:01.383Z,8.50
2023-05-01T22:17:29.496Z,10.33
2023-05-01T22:19:57.034Z,11.33
2023-05-01T22:22:24.530Z,6.53
2023-05-01T22:24:52.599Z,7.10
2023-05-01T22:27:19.846Z,10.67
2023-05-01T22:29:49.206Z,8.20
2023-05-01T22:37:21.265Z,10.23
2023-05-01T22:39:48.407Z,9.07
2023-05-01T22:42:16.145Z,10.13
2023-05-01T22:44:43.414Z,9.87
2023-05-01T22:47:10.603Z,10.67
2023-05-01T22:49:37.848Z,13.03
2023-05-01T22:52:05.821Z,12.50
2023-05-01T22:57:18.109Z,13.67
2023-05-01T22:59:45.784Z,12.80
2023-05-01T23:02:16.988Z,13.53
2023-05-01T23:04:44.595Z,12.67
2023-05-01T23:07:14.359Z,12.63
2023-05-01T23:09:42.021Z,14.80
2023-05-01T23:12:18.656Z,16.03
2023-05-01T23:17:40.842Z,17.03
2023-05-01T23:20:09.374Z,17.17
2023-05-01T23:22:37.720Z,14.53
2023-05-01T23:25:06.872Z,19.23
2023-05-01T23:27:36.041Z,17.90
2023-05-01T23:30:05.928Z,18.30
2023-05-01T23:32:34.469Z,17.47
2023-05-01T23:43:12.875Z,16.73
2023-05-01T23:45:40.061Z,25.00
2023-05-01T23:48:07.659Z,16.13
2023-05-01T23:50:35.344Z,18.03
2023-05-01T23:53:06.890Z,22.67
2023-05-01T23:55:35.345Z,17.77
2023-05-01T23:58:02.777Z,17.07
